Time;durP1;ratioP1;P1;durP2;ratioP2;P2;SDS_P1;SDS_P2;PMS_P1;PMS_P2;Temp;Humidity;BMP_temperature;BMP_pressure;BME280_temperature;BME280_humidity;BME280_pressure;Samples;Min_cycle;Max_cycle;Signal;HPM_P1;HPM_P2
2023/05/27 00:00:09;;;;;;;24.88;6.35;;;9.50;99.90;;;-144.05;60.52;56863.69;5052465;28;20074;-81
2023/05/27 00:02:36;;;;;;;24.58;6.05;;;9.50;99.90;;;-144.05;60.60;56887.06;5051846;28;20040;-81
2023/05/27 00:05:03;;;;;;;25.45;5.75;;;9.50;99.90;;;-144.05;60.90;56882.81;5055089;28;20157;-83
2023/05/27 00:07:29;;;;;;;17.70;5.53;;;9.50;99.90;;;-144.05;61.04;56884.94;5056470;28;20036;-81
2023/05/27 00:09:55;;;;;;;16.85;5.93;;;9.50;99.90;;;-144.05;61.79;56874.31;5052403;28;20025;-81
2023/05/27 00:12:21;;;;;;;18.00;6.32;;;9.50;99.90;;;-144.05;61.98;56880.69;5052504;28;20025;-81
2023/05/27 00:14:47;;;;;;;23.58;5.50;;;9.40;99.90;;;-144.05;61.13;56859.47;5055159;28;20090;-83
2023/05/27 00:17:15;;;;;;;22.65;6.07;;;9.40;99.90;;;-144.05;61.13;56884.94;5057136;28;20530;-83
2023/05/27 00:19:44;;;;;;;24.00;6.13;;;9.40;99.90;;;-144.05;61.92;56867.94;5052735;28;20043;-81
2023/05/27 00:22:11;;;;;;;18.85;4.68;;;9.30;99.90;;;-144.05;61.87;56874.31;5051992;28;20052;-80
2023/05/27 00:24:39;;;;;;;21.90;6.35;;;9.40;99.90;;;-144.05;61.99;56882.81;5051330;28;20044;-81
2023/05/27 00:27:10;;;;;;;23.02;6.13;;;9.30;99.90;;;-144.05;61.91;56880.69;5051051;28;20021;-80
2023/05/27 00:29:36;;;;;;;25.33;6.32;;;9.30;99.90;;;-144.05;62.21;56878.56;5050951;28;20273;-81
2023/05/27 00:32:04;;;;;;;18.45;6.07;;;9.20;99.90;;;-144.05;62.40;56880.69;5051205;28;20542;-81
2023/05/27 00:34:34;;;;;;;16.25;5.25;;;9.20;99.90;;;-144.05;62.65;56872.19;5051583;28;20029;-81
2023/05/27 00:37:00;;;;;;;27.05;5.43;;;9.20;99.90;;;-144.05;62.67;56865.81;5051798;28;20021;-81
2023/05/27 00:39:26;;;;;;;15.80;4.88;;;9.10;99.90;;;-144.05;62.33;56865.81;5050061;28;20025;-83
2023/05/27 00:41:51;;;;;;;20.90;5.55;;;9.10;99.90;;;-144.05;63.04;56887.06;5051662;28;20089;-81
2023/05/27 00:44:18;;;;;;;22.30;6.05;;;9.00;99.90;;;-144.05;63.57;56889.19;5051791;28;20017;-82
2023/05/27 00:46:48;;;;;;;29.20;7.03;;;8.90;99.90;;;-144.05;63.94;56897.69;5050633;28;20060;-82
2023/05/27 00:49:15;;;;;;;21.52;5.68;;;8.90;99.90;;;-144.05;63.88;56861.56;5054494;28;20024;-81
2023/05/27 00:51:41;;;;;;;21.98;5.38;;;8.90;99.90;;;-144.05;63.96;56853.09;5054686;28;20052;-81
2023/05/27 00:54:10;;;;;;;22.08;6.13;;;8.80;99.90;;;-144.05;64.92;56889.19;5054805;28;20458;-80
2023/05/27 00:56:37;;;;;;;23.25;6.75;;;8.90;99.90;;;-144.05;65.24;56882.81;5054424;28;20037;-80
2023/05/27 00:59:04;;;;;;;21.77;5.50;;;8.80;99.90;;;-144.05;64.94;56867.94;5054261;28;20114;-81
2023/05/27 01:01:30;;;;;;;24.45;5.85;;;8.80;99.90;;;-144.05;64.50;56906.19;5054259;28;20128;-81
2023/05/27 01:03:57;;;;;;;22.35;6.00;;;8.80;99.90;;;-144.05;64.62;56876.44;5052993;28;20032;-81
2023/05/27 01:07:00;;;;;;;21.38;6.60;;;8.80;99.90;;;-144.05;65.29;56887.06;5053026;28;20375;-81
2023/05/27 01:09:47;;;;;;;23.85;6.50;;;8.70;99.90;;;-144.05;65.14;56882.81;5054199;28;20029;-82
2023/05/27 01:12:37;;;;;;;22.33;6.00;;;8.70;99.90;;;-144.05;65.03;56863.69;5052501;28;20459;-80
2023/05/27 01:15:07;;;;;;;21.95;6.30;;;8.70;99.90;;;-144.05;65.25;56861.56;5052819;28;20029;-79
2023/05/27 01:17:37;;;;;;;21.58;6.38;;;8.60;99.90;;;-144.05;66.17;56895.56;5052951;28;20033;-81
2023/05/27 01:20:05;;;;;;;11.55;5.13;;;8.60;99.90;;;-144.05;66.16;56904.06;5052875;28;20033;-81
2023/05/27 01:22:32;;;;;;;22.85;6.07;;;8.60;99.90;;;-144.05;66.31;56895.56;5060122;28;20029;-85
2023/05/27 01:24:58;;;;;;;22.38;6.57;;;8.60;99.90;;;-144.05;66.71;56865.81;5057082;28;20041;-83
2023/05/27 01:27:26;;;;;;;14.45;5.78;;;8.50;99.90;;;-144.05;66.03;56861.56;5053836;28;20029;-81
2023/05/27 01:29:53;;;;;;;18.80;7.10;;;8.60;99.90;;;-144.05;66.17;56874.31;5054426;28;20482;-81
2023/05/27 01:32:43;;;;;;;19.55;6.22;;;8.50;99.90;;;-144.05;66.31;56878.56;5052803;28;20033;-82
2023/05/27 01:35:21;;;;;;;25.48;6.28;;;8.50;99.90;;;-144.05;66.27;56876.44;5053935;28;20036;-81
2023/05/27 01:37:52;;;;;;;27.20;6.68;;;8.50;99.90;;;-144.05;66.48;56889.19;5053196;28;20104;-82
2023/05/27 01:40:21;;;;;;;20.45;5.80;;;8.40;99.90;;;-144.05;66.63;56887.06;5053067;28;20654;-81
2023/05/27 01:42:49;;;;;;;24.17;6.25;;;8.40;99.90;;;-144.05;66.94;56876.44;5053246;28;20048;-80
2023/05/27 01:45:15;;;;;;;22.30;6.18;;;8.40;99.90;;;-144.05;67.13;56887.06;5052358;28;20025;-80
2023/05/27 01:47:44;;;;;;;25.13;6.85;;;8.40;99.90;;;-144.05;67.11;56887.06;5051974;28;20029;-81
2023/05/27 01:50:11;;;;;;;22.08;6.95;;;8.40;99.90;;;-144.05;66.86;56867.94;5052019;28;20028;-82
2023/05/27 01:52:37;;;;;;;19.27;6.55;;;8.40;99.90;;;-144.05;67.71;56897.69;5051803;28;20108;-80
2023/05/27 01:55:05;;;;;;;23.02;6.05;;;8.40;99.90;;;-144.05;67.76;56882.81;5052034;28;20366;-83
2023/05/27 01:57:31;;;;;;;22.05;5.95;;;8.20;99.90;;;-144.05;67.78;56882.81;5052880;28;20021;-81
2023/05/27 01:59:57;;;;;;;18.33;6.75;;;8.20;99.90;;;-144.05;68.10;56867.94;5053203;28;20068;-80
2023/05/27 02:02:23;;;;;;;25.60;6.38;;;8.20;99.90;;;-144.05;67.87;56878.56;5051728;28;20267;-81
2023/05/27 02:04:49;;;;;;;20.48;5.80;;;8.20;99.90;;;-144.05;67.99;56878.56;5051822;28;20122;-81
2023/05/27 02:07:16;;;;;;;21.65;6.63;;;8.20;99.90;;;-144.05;68.39;56882.81;5052153;28;20037;-81
2023/05/27 02:09:44;;;;;;;26.27;7.72;;;8.20;99.90;;;-144.05;68.55;56872.19;5053241;28;20132;-81
2023/05/27 02:12:10;;;;;;;25.05;7.57;;;8.10;99.90;;;-144.05;69.59;56895.56;5051662;28;20116;-82
2023/05/27 02:14:38;;;;;;;24.83;5.97;;;8.10;99.90;;;-144.05;68.86;56870.06;5052803;28;20056;-81
2023/05/27 02:17:06;;;;;;;20.33;6.60;;;8.10;99.90;;;-144.05;68.65;56865.81;5053275;28;20440;-81
2023/05/27 02:19:32;;;;;;;23.20;6.30;;;8.10;99.90;;;-144.05;69.21;56895.56;5053063;28;20021;-81
2023/05/27 02:21:58;;;;;;;18.95;6.57;;;8.10;99.90;;;-144.05;69.00;56889.19;5051521;28;20033;-82
2023/05/27 02:24:23;;;;;;;20.30;6.68;;;8.00;99.90;;;-144.05;69.89;56901.94;5052664;28;20025;-82
2023/05/27 02:26:49;;;;;;;16.95;6.63;;;8.00;99.90;;;-144.05;69.50;56878.56;5051757;28;20055;-79
2023/05/27 02:29:15;;;;;;;27.13;8.25;;;8.00;99.90;;;-144.05;69.96;56897.69;5052506;28;20088;-82
2023/05/27 02:31:41;;;;;;;19.88;6.20;;;7.90;99.90;;;-144.05;70.26;56861.56;5051859;28;20398;-81
2023/05/27 02:34:07;;;;;;;17.60;6.45;;;7.90;99.90;;;-144.05;70.06;56882.81;5051234;28;20479;-80
2023/05/27 02:36:33;;;;;;;17.73;6.18;;;7.90;99.90;;;-144.05;69.71;56880.69;5051138;28;20068;-81
2023/05/27 02:38:59;;;;;;;22.88;7.63;;;7.90;99.90;;;-144.05;69.85;56878.56;5056794;28;20052;-83
2023/05/27 02:41:26;;;;;;;19.52;6.85;;;7.90;99.90;;;-144.05;69.70;56878.56;5053215;28;20036;-84
2023/05/27 02:43:52;;;;;;;22.77;7.32;;;7.80;99.90;;;-144.05;70.07;56901.94;5053313;28;20033;-82
2023/05/27 02:46:18;;;;;;;20.45;7.03;;;7.80;99.90;;;-144.05;70.10;56865.81;5051605;28;20127;-82
2023/05/27 02:48:43;;;;;;;18.20;7.57;;;7.80;99.90;;;-144.05;70.08;56891.31;5051608;28;20509;-80
2023/05/27 02:51:09;;;;;;;16.73;6.90;;;7.70;99.90;;;-144.05;70.42;56891.31;5052189;28;20025;-82
2023/05/27 02:53:35;;;;;;;18.20;7.35;;;7.70;99.90;;;-144.05;70.56;56846.72;5051387;28;20032;-82
2023/05/27 02:56:01;;;;;;;20.52;6.70;;;7.60;99.90;;;-144.05;70.59;56884.94;5050944;28;20029;-81
2023/05/27 02:58:27;;;;;;;23.55;7.57;;;7.60;99.90;;;-144.05;71.14;56904.06;5051340;28;20033;-80
2023/05/27 03:00:53;;;;;;;17.98;7.38;;;7.50;99.90;;;-144.05;70.91;56880.69;5051972;28;20036;-80
2023/05/27 03:03:18;;;;;;;18.83;7.50;;;7.50;99.90;;;-144.05;71.14;56904.06;5050776;28;20028;-81
2023/05/27 03:05:45;;;;;;;27.83;7.93;;;7.50;99.90;;;-144.05;72.64;56876.44;5053137;28;20033;-80
2023/05/27 03:08:10;;;;;;;21.88;7.55;;;7.50;99.90;;;-144.05;71.94;56880.69;5054192;28;20029;-83
2023/05/27 03:10:36;;;;;;;19.23;7.38;;;7.50;99.90;;;-144.05;72.64;56859.47;5053497;28;20036;-82
2023/05/27 03:13:02;;;;;;;23.70;7.78;;;7.50;99.90;;;-144.05;72.17;56906.19;5051048;28;20409;-81
2023/05/27 03:15:29;;;;;;;27.42;8.82;;;7.50;99.90;;;-144.05;72.45;56878.56;5051038;28;20025;-80
2023/05/27 03:17:56;;;;;;;21.35;7.43;;;7.50;99.90;;;-144.05;72.18;56867.94;5051721;28;20025;-78
2023/05/27 03:20:22;;;;;;;26.05;8.88;;;7.40;99.90;;;-144.05;72.19;56912.56;5051888;28;20036;-81
2023/05/27 03:22:48;;;;;;;29.60;8.57;;;7.40;99.90;;;-144.05;72.31;56882.81;5051218;28;20045;-83
2023/05/27 03:25:15;;;;;;;24.98;7.22;;;7.40;99.90;;;-144.05;72.64;56904.06;5050796;28;20120;-83
2023/05/27 03:27:41;;;;;;;16.08;7.68;;;7.40;99.90;;;-144.05;72.67;56889.19;5051568;28;20095;-83
2023/05/27 03:30:08;;;;;;;22.15;7.60;;;7.40;99.90;;;-144.05;72.66;56880.69;5052070;28;20095;-82
2023/05/27 03:32:34;;;;;;;26.70;8.18;;;7.40;99.90;;;-144.05;72.75;56893.44;5052133;28;20063;-82
2023/05/27 03:35:00;;;;;;;21.80;8.35;;;7.40;99.90;;;-144.05;72.56;56893.44;5052042;28;20029;-82
2023/05/27 03:37:26;;;;;;;23.92;8.00;;;7.40;99.90;;;-144.05;73.06;56880.69;5052669;28;20482;-82
2023/05/27 03:39:53;;;;;;;17.98;7.55;;;7.40;99.90;;;-144.05;72.81;56876.44;5053366;28;20053;-82
2023/05/27 03:42:19;;;;;;;29.30;9.35;;;7.40;99.90;;;-144.05;72.54;56884.94;5053410;28;20110;-81
2023/05/27 03:44:45;;;;;;;21.48;8.65;;;7.40;99.90;;;-144.05;72.27;56848.84;5054624;28;20037;-80
2023/05/27 03:47:11;;;;;;;23.92;8.85;;;7.30;99.90;;;-144.05;72.54;56887.06;5054010;28;20032;-80
2023/05/27 03:49:37;;;;;;;26.98;9.50;;;7.40;99.90;;;-144.05;72.87;56889.19;5053417;28;20067;-82
2023/05/27 03:52:03;;;;;;;24.08;8.38;;;7.40;99.90;;;-144.05;73.23;56884.94;5050510;28;20033;-80
2023/05/27 03:54:30;;;;;;;24.92;9.20;;;7.40;99.90;;;-144.05;73.23;56887.06;5068827;28;20069;-84
2023/05/27 03:56:55;;;;;;;19.42;7.50;;;7.40;99.90;;;-144.05;72.66;56893.44;5053344;28;20037;-83
2023/05/27 03:59:22;;;;;;;25.75;8.13;;;7.50;99.90;;;-144.05;72.71;56908.31;5051161;28;20028;-82
2023/05/27 04:01:48;;;;;;;26.45;8.73;;;7.50;99.90;;;-144.05;73.05;56899.81;5050679;28;20041;-82
2023/05/27 04:04:14;;;;;;;29.00;9.02;;;7.50;99.90;;;-144.05;72.44;56880.69;5051167;28;20515;-81
2023/05/27 04:06:41;;;;;;;26.88;8.85;;;7.50;99.90;;;-144.05;72.41;56893.44;5050258;28;20479;-84
2023/05/27 04:09:08;;;;;;;22.52;8.13;;;7.50;99.90;;;-144.05;72.41;56878.56;5052355;28;20120;-83
2023/05/27 04:11:34;;;;;;;30.05;8.80;;;7.50;99.90;;;-144.05;72.49;56908.31;5052049;28;20033;-84
2023/05/27 04:14:00;;;;;;;23.58;8.43;;;7.60;99.90;;;-144.05;72.41;56878.56;5052294;28;20025;-82
2023/05/27 04:16:25;;;;;;;20.42;7.95;;;7.60;99.90;;;-144.05;72.12;56897.69;5051268;28;20083;-81
2023/05/27 04:18:52;;;;;;;19.45;8.23;;;7.60;99.90;;;-144.05;72.02;56870.06;5049993;28;20029;-81
2023/05/27 04:21:19;;;;;;;30.27;9.05;;;7.70;99.90;;;-144.05;72.10;56908.31;5053662;28;20025;-83
2023/05/27 04:23:44;;;;;;;21.20;7.95;;;7.70;99.90;;;-144.05;71.57;56891.31;5055235;28;20056;-82
2023/05/27 04:26:11;;;;;;;26.50;8.68;;;7.80;99.90;;;-144.05;71.64;56861.56;5053540;28;20064;-81
2023/05/27 04:28:39;;;;;;;21.77;8.18;;;7.80;99.90;;;-144.05;71.28;56906.19;5053506;28;20071;-81
2023/05/27 04:31:05;;;;;;;20.13;7.50;;;7.90;99.90;;;-144.05;70.58;56872.19;5054694;28;20025;-81
2023/05/27 04:33:31;;;;;;;22.63;8.35;;;7.90;99.90;;;-144.05;71.28;56867.94;5053577;28;20033;-78
2023/05/27 04:35:57;;;;;;;28.30;8.63;;;8.00;99.90;;;-144.05;70.80;56880.69;5053457;28;20078;-80
2023/05/27 04:38:23;;;;;;;29.77;8.30;;;8.00;99.90;;;-144.05;70.71;56904.06;5053200;28;20279;-81
2023/05/27 04:40:52;;;;;;;22.15;8.38;;;8.10;99.90;;;-144.05;70.79;56884.94;5054533;28;20112;-82
2023/05/27 04:43:22;;;;;;;23.25;8.32;;;8.10;99.90;;;-144.05;70.19;56880.69;5054591;28;20059;-82
2023/05/27 04:45:49;;;;;;;17.80;7.63;;;8.20;99.90;;;-144.05;70.18;56861.56;5053585;28;20033;-84
2023/05/27 04:48:15;;;;;;;33.53;8.60;;;8.20;99.90;;;-144.05;69.89;56895.56;5055078;28;20033;-84
2023/05/27 04:50:42;;;;;;;25.10;8.23;;;8.30;99.90;;;-144.05;69.60;56870.06;5053438;28;20025;-84
2023/05/27 04:53:08;;;;;;;22.52;8.45;;;8.30;99.90;;;-144.05;69.43;56891.31;5053280;28;20680;-83
2023/05/27 04:55:35;;;;;;;23.38;9.95;;;8.40;99.90;;;-144.05;69.31;56884.94;5055108;28;20116;-83
2023/05/27 04:58:03;;;;;;;29.05;11.25;;;8.50;99.90;;;-144.05;69.14;56876.44;5057266;28;20036;-85
2023/05/27 05:00:38;;;;;;;26.85;11.10;;;8.60;99.90;;;-144.05;68.72;56867.94;5057716;28;20056;-82
2023/05/27 05:03:08;;;;;;;25.67;9.80;;;8.70;99.90;;;-144.05;68.18;56859.47;5060979;28;20055;-81
2023/05/27 05:05:34;;;;;;;25.17;10.13;;;8.90;99.90;;;-144.05;68.18;56870.06;5068142;28;20028;-84
2023/05/27 05:08:01;;;;;;;23.73;8.93;;;9.10;99.90;;;-144.05;67.59;56861.56;5069080;28;20044;-79
2023/05/27 05:10:26;;;;;;;17.00;8.65;;;9.20;99.90;;;-144.05;66.73;56870.06;5077910;28;20033;-76
2023/05/27 05:12:53;;;;;;;24.48;8.65;;;9.30;99.90;;;-144.05;66.17;56865.81;5077520;28;20040;-83
2023/05/27 05:15:18;;;;;;;21.80;8.02;;;9.50;99.90;;;-144.05;65.49;56844.59;5063626;28;20324;-78
2023/05/27 05:17:44;;;;;;;25.10;8.40;;;9.60;99.90;;;-144.05;64.80;56863.69;5053230;28;20078;-82
2023/05/27 05:20:12;;;;;;;29.48;9.02;;;9.70;99.90;;;-144.05;63.21;56853.09;5054123;28;20126;-82
2023/05/27 05:22:38;;;;;;;20.70;9.25;;;9.80;99.90;;;-144.05;62.61;56861.56;5052869;28;20033;-79
2023/05/27 05:25:04;;;;;;;30.98;8.93;;;9.90;99.90;;;-144.05;62.57;56863.69;5053881;28;20481;-81
2023/05/27 05:27:30;;;;;;;19.10;7.88;;;9.90;99.90;;;-144.05;61.78;56876.44;5053701;28;20033;-81
2023/05/27 05:29:56;;;;;;;18.17;9.98;;;10.00;99.90;;;-144.05;61.26;56861.56;5052422;28;20343;-81
2023/05/27 05:32:22;;;;;;;24.85;9.57;;;10.10;99.90;;;-144.05;61.45;56876.44;5051743;28;20768;-80
2023/05/27 05:34:48;;;;;;;23.95;9.75;;;10.30;99.90;;;-144.05;60.25;56853.09;5053701;28;20397;-80
2023/05/27 05:37:13;;;;;;;22.25;9.68;;;10.40;99.90;;;-144.05;59.28;56865.81;5053563;28;20102;-79
2023/05/27 05:39:42;;;;;;;28.17;10.07;;;10.50;99.90;;;-144.05;59.09;56872.19;5053418;28;20025;-79
2023/05/27 05:42:08;;;;;;;20.35;9.40;;;10.50;99.90;;;-144.05;59.36;56855.22;5052095;28;20052;-81
2023/05/27 05:44:34;;;;;;;31.65;10.13;;;10.70;99.90;;;-144.05;57.97;56867.94;5053600;28;20025;-80
2023/05/27 05:47:00;;;;;;;21.55;8.77;;;10.90;99.90;;;-144.05;57.30;56855.22;5053191;28;20033;-80
2023/05/27 05:49:26;;;;;;;21.77;8.10;;;11.00;99.90;;;-144.05;57.42;56878.56;5051830;28;20037;-78
2023/05/27 05:51:52;;;;;;;23.33;7.80;;;11.00;99.90;;;-144.05;57.13;56855.22;5052885;28;20406;-79
2023/05/27 05:54:18;;;;;;;22.45;7.63;;;11.20;99.90;;;-144.05;56.06;56853.09;5051831;28;20490;-80
2023/05/27 05:56:43;;;;;;;16.10;6.05;;;11.30;99.90;;;-144.05;55.74;56855.22;5053141;28;20033;-80
2023/05/27 05:59:09;;;;;;;19.88;6.60;;;11.50;99.90;;;-144.05;54.92;56878.56;5053145;28;20029;-80
2023/05/27 06:01:35;;;;;;;18.15;7.20;;;11.80;99.90;;;-144.05;54.00;56865.81;5051532;28;20029;-80
2023/05/27 06:04:04;;;;;;;20.27;6.88;;;12.10;99.90;;;-144.05;53.55;56880.69;5051667;28;20081;-80
2023/05/27 06:06:30;;;;;;;19.90;7.15;;;12.20;99.90;;;-144.05;51.96;56831.84;5052836;28;20032;-80
2023/05/27 06:08:56;;;;;;;14.93;6.35;;;12.40;99.90;;;-144.05;51.81;56855.22;5052933;28;20163;-82
2023/05/27 06:11:22;;;;;;;21.15;6.97;;;12.70;99.90;;;-144.05;50.98;56848.84;5051558;28;20115;-80
2023/05/27 06:13:48;;;;;;;16.77;6.00;;;12.80;99.90;;;-144.05;50.99;56850.97;5051556;28;20021;-81
2023/05/27 06:16:14;;;;;;;18.73;6.90;;;12.90;99.90;;;-144.05;49.81;56861.56;5052654;28;20037;-82
2023/05/27 06:18:40;;;;;;;22.17;6.22;;;13.00;99.90;;;-144.05;50.43;56857.34;5052794;28;20064;-81
2023/05/27 06:21:07;;;;;;;14.98;6.03;;;13.10;99.90;;;-144.05;49.75;56863.69;5051324;28;20025;-81
2023/05/27 06:23:32;;;;;;;21.92;6.68;;;13.30;99.90;;;-144.05;48.56;56870.06;5052799;28;20512;-80
2023/05/27 06:25:58;;;;;;;18.13;5.85;;;13.50;99.90;;;-144.05;48.53;56863.69;5052862;28;20057;-79
2023/05/27 06:28:25;;;;;;;16.80;6.25;;;13.70;99.90;;;-144.05;48.25;56848.84;5052929;28;20032;-85
2023/05/27 06:30:51;;;;;;;18.83;6.35;;;14.00;99.90;;;-144.05;47.96;56857.34;5053581;28;20258;-84
2023/05/27 06:33:16;;;;;;;17.23;6.55;;;14.00;99.90;;;-144.05;46.77;56870.06;5052040;28;20025;-83
2023/05/27 06:35:43;;;;;;;17.02;6.43;;;14.20;99.90;;;-144.05;47.15;56870.06;5053246;28;20525;-81
2023/05/27 06:38:09;;;;;;;15.35;6.60;;;14.00;99.90;;;-144.05;47.51;56865.81;5052881;28;20371;-79
2023/05/27 06:40:35;;;;;;;23.15;6.22;;;13.90;99.90;;;-144.05;46.96;56855.22;5051625;28;20021;-83
2023/05/27 06:43:01;;;;;;;23.52;7.38;;;14.00;99.90;;;-144.05;48.09;56876.44;5052970;28;20032;-79
2023/05/27 06:45:27;;;;;;;21.23;5.80;;;13.90;99.90;;;-144.05;47.10;56846.72;5050316;28;20474;-80
2023/05/27 06:47:52;;;;;;;20.70;7.13;;;14.10;99.90;;;-144.05;46.59;56848.84;5052647;28;20565;-82
2023/05/27 06:50:18;;;;;;;16.45;6.63;;;14.30;99.90;;;-144.05;46.34;56859.47;5051404;28;20343;-82
2023/05/27 06:52:44;;;;;;;14.50;7.00;;;14.50;99.90;;;-144.05;45.52;56874.31;5052309;28;20025;-83
2023/05/27 06:55:11;;;;;;;18.98;6.38;;;14.80;99.90;;;-144.05;45.09;56859.47;5051512;28;20071;-81
2023/05/27 06:57:37;;;;;;;15.15;6.15;;;14.90;99.90;;;-144.05;44.94;56872.19;5050972;28;20028;-81
2023/05/27 07:00:05;;;;;;;15.60;6.25;;;14.90;99.90;;;-144.05;44.94;56865.81;5052234;28;20152;-80
2023/05/27 07:02:31;;;;;;;21.58;6.80;;;15.30;99.90;;;-144.05;43.33;56840.34;5052199;28;20040;-82
2023/05/27 07:04:57;;;;;;;15.88;6.28;;;15.60;99.90;;;-144.05;43.81;56859.47;5052101;28;20540;-80
2023/05/27 07:07:23;;;;;;;20.10;7.10;;;15.70;99.90;;;-144.05;42.48;56863.69;5050566;28;20066;-80
2023/05/27 07:09:48;;;;;;;17.60;6.82;;;15.90;99.90;;;-144.05;43.35;56899.81;5052250;28;20102;-80
2023/05/27 07:12:14;;;;;;;19.45;6.65;;;15.80;99.90;;;-144.05;43.13;56867.94;5052002;28;20036;-82
2023/05/27 07:14:40;;;;;;;22.13;7.25;;;15.70;99.90;;;-144.05;42.99;56853.09;5052484;28;20116;-79
2023/05/27 07:17:06;;;;;;;19.58;6.00;;;15.80;99.90;;;-144.05;43.05;56872.19;5052165;28;20032;-80
2023/05/27 07:19:32;;;;;;;19.60;6.90;;;16.00;99.90;;;-144.05;42.89;56870.06;5050746;28;20029;-78
2023/05/27 07:21:58;;;;;;;16.75;5.93;;;16.00;99.90;;;-144.05;43.82;56882.81;5050680;28;20032;-83
2023/05/27 07:24:23;;;;;;;19.88;6.35;;;15.80;99.90;;;-144.05;44.54;56870.06;5050672;28;20375;-81
2023/05/27 07:26:49;;;;;;;17.20;5.60;;;15.50;99.90;;;-144.05;43.32;56848.84;5050689;28;20126;-81
2023/05/27 07:29:15;;;;;;;21.65;5.80;;;15.70;99.90;;;-144.05;42.91;56867.94;5050391;28;20395;-81
2023/05/27 07:31:41;;;;;;;18.80;6.82;;;16.10;99.90;;;-144.05;42.34;56859.47;5051773;28;20181;-83
2023/05/27 07:34:07;;;;;;;21.70;6.30;;;16.60;99.90;;;-144.05;41.39;56872.19;5051809;28;20021;-80
2023/05/27 07:36:33;;;;;;;15.35;5.90;;;17.00;99.90;;;-144.05;41.13;56887.06;5051710;28;20397;-81
2023/05/27 07:38:59;;;;;;;14.38;6.03;;;17.30;99.90;;;-144.05;40.13;56895.56;5055309;28;20071;-80
2023/05/27 07:41:26;;;;;;;16.20;5.72;;;17.50;99.90;;;-144.05;39.17;56850.97;5053301;28;20029;-80
2023/05/27 07:43:51;;;;;;;20.90;6.00;;;17.60;99.90;;;-144.05;39.98;56895.56;5052504;28;20044;-80
2023/05/27 07:46:17;;;;;;;14.15;5.38;;;17.90;99.90;;;-144.05;39.64;56884.94;5053342;28;20032;-83
2023/05/27 07:48:43;;;;;;;16.15;5.72;;;18.20;99.90;;;-144.05;38.76;56914.69;5052440;28;20393;-82
2023/05/27 07:51:09;;;;;;;14.55;5.90;;;18.60;99.90;;;-144.05;37.30;56895.56;5050221;28;20036;-82
2023/05/27 07:53:37;;;;;;;16.92;5.88;;;18.70;99.90;;;-144.05;37.49;56904.06;5052269;28;20040;-81
2023/05/27 07:56:03;;;;;;;20.63;6.80;;;18.90;99.90;;;-144.05;37.65;56918.94;5051913;28;20032;-81
2023/05/27 07:58:29;;;;;;;19.50;6.70;;;18.80;99.90;;;-144.05;37.33;56889.19;5054224;28;20029;-82
2023/05/27 08:00:55;;;;;;;16.95;5.95;;;18.90;99.90;;;-144.05;37.36;56916.81;5059170;28;20516;-82
2023/05/27 08:03:21;;;;;;;19.92;6.55;;;19.00;99.90;;;-144.05;36.97;56874.31;5057533;28;20445;-81
2023/05/27 08:05:47;;;;;;;20.13;6.50;;;18.90;99.90;;;-144.05;36.61;56878.56;5062196;28;20027;-81
2023/05/27 08:08:13;;;;;;;20.67;6.82;;;19.10;99.90;;;-144.05;37.37;56904.06;5061885;28;20037;-80
2023/05/27 08:10:39;;;;;;;16.55;5.88;;;18.80;99.90;;;-144.05;37.54;56918.94;5054589;28;20036;-82
2023/05/27 08:13:05;;;;;;;20.15;6.13;;;18.70;99.90;;;-144.05;36.70;56882.81;5055260;28;20025;-80
2023/05/27 08:15:31;;;;;;;15.18;5.40;;;18.80;99.90;;;-144.05;38.45;56906.19;5055290;28;20291;-81
2023/05/27 08:17:58;;;;;;;21.95;6.35;;;18.30;99.90;;;-144.05;38.22;56891.31;5054005;28;20029;-82
2023/05/27 08:20:23;;;;;;;15.48;5.38;;;18.50;99.90;;;-144.05;37.53;56908.31;5054250;28;20039;-82
2023/05/27 08:22:49;;;;;;;19.35;5.90;;;18.90;99.90;;;-144.05;36.68;56897.69;5055341;28;20104;-80
2023/05/27 08:25:16;;;;;;;17.10;5.25;;;19.40;99.90;;;-144.05;36.28;56906.19;5055142;28;20075;-81
2023/05/27 08:28:03;;;;;;;18.42;5.40;;;19.50;99.90;;;-144.05;36.28;56912.56;5055188;28;20075;-80
2023/05/27 08:30:29;;;;;;;20.60;6.40;;;19.40;99.90;;;-144.05;37.15;56893.44;5053981;28;20155;-81
2023/05/27 08:32:57;;;;;;;17.25;5.15;;;19.00;99.90;;;-144.05;36.81;56914.69;5055355;28;20103;-81
2023/05/27 08:35:23;;;;;;;13.90;5.30;;;19.30;99.90;;;-144.05;37.04;56895.56;5053598;28;20498;-81
2023/05/27 08:37:49;;;;;;;20.85;5.93;;;19.10;99.90;;;-144.05;35.41;56925.28;5054820;28;20037;-82
2023/05/27 08:40:19;;;;;;;18.23;5.95;;;19.50;99.90;;;-144.05;35.82;56916.81;5054789;28;20107;-82
2023/05/27 08:42:48;;;;;;;17.30;6.10;;;19.60;99.90;;;-144.05;35.47;56933.78;5054850;28;20044;-80
2023/05/27 08:45:14;;;;;;;15.27;5.57;;;19.80;99.90;;;-144.05;36.33;56923.19;5055661;28;20371;-80
2023/05/27 08:47:40;;;;;;;18.73;5.35;;;19.40;99.90;;;-144.05;35.56;56929.53;5055260;28;20025;-80
2023/05/27 08:50:08;;;;;;;14.32;6.10;;;19.80;99.90;;;-144.05;34.71;56933.78;5054868;28;20135;-81
2023/05/27 08:52:47;;;;;;;16.17;5.50;;;20.10;99.90;;;-144.05;34.37;56912.56;5053096;28;20025;-80
2023/05/27 08:55:19;;;;;;;15.00;6.03;;;20.40;99.90;;;-144.05;34.33;56923.19;5055525;28;20078;-78
2023/05/27 08:57:54;;;;;;;17.27;5.45;;;20.50;99.90;;;-144.05;34.81;56933.78;5052726;28;20025;-79
2023/05/27 09:00:20;;;;;;;19.00;5.55;;;20.60;99.90;;;-144.05;35.09;56946.53;5054543;28;20025;-80
2023/05/27 09:02:47;;;;;;;12.75;5.18;;;20.80;99.90;;;-144.05;34.55;56946.53;5056066;28;20551;-85
2023/05/27 09:05:17;;;;;;;15.90;5.50;;;20.80;99.70;;;-144.05;34.05;56959.28;5057330;28;20253;-85
2023/05/27 09:07:44;;;;;;;17.80;6.25;;;21.00;98.40;;;-144.05;33.20;56933.78;5053827;28;20041;-80
2023/05/27 09:10:10;;;;;;;18.55;5.38;;;20.90;97.20;;;-144.05;33.39;56938.03;5056326;28;20171;-85
2023/05/27 09:12:36;;;;;;;17.90;5.53;;;21.10;97.70;;;-144.05;33.12;56938.03;5055455;28;20112;-83
2023/05/27 09:15:04;;;;;;;18.42;5.95;;;21.10;96.60;;;-144.05;33.22;56959.28;5054201;28;20025;-82
2023/05/27 09:17:31;;;;;;;16.60;5.05;;;21.30;96.10;;;-144.05;33.74;56942.28;5054873;28;20024;-81
2023/05/27 09:19:57;;;;;;;16.05;5.80;;;21.40;98.30;;;-144.05;33.02;56946.53;5052980;28;20090;-82
2023/05/27 09:22:31;;;;;;;13.93;5.18;;;21.30;94.50;;;-144.05;33.24;56944.41;5053342;28;20511;-82
2023/05/27 09:24:57;;;;;;;22.85;5.70;;;21.20;95.30;;;-144.05;32.66;56942.28;5053347;28;20504;-83
2023/05/27 09:27:32;;;;;;;20.05;5.45;;;21.50;94.20;;;-144.05;32.75;56974.16;5054386;28;20056;-81
2023/05/27 09:30:07;;;;;;;13.27;5.13;;;21.50;94.30;;;-144.05;32.45;56965.66;5053815;28;20178;-80
2023/05/27 09:32:33;;;;;;;14.95;5.15;;;21.70;94.60;;;-144.05;31.83;56976.28;5054322;28;20033;-80
2023/05/27 09:35:02;;;;;;;14.80;4.47;;;21.80;92.00;;;-144.05;31.50;56974.16;5052988;28;20064;-81
2023/05/27 09:37:34;;;;;;;13.38;4.70;;;21.80;92.00;;;-144.05;31.53;56982.66;5053953;28;20031;-80
2023/05/27 09:40:10;;;;;;;19.00;5.22;;;21.80;91.40;;;-144.05;30.75;56976.28;5053404;28;20029;-80
2023/05/27 09:42:48;;;;;;;16.08;5.28;;;21.90;89.60;;;-144.05;31.77;56938.03;5053533;28;20043;-80
2023/05/27 09:45:20;;;;;;;12.60;4.88;;;21.50;90.30;;;-144.05;31.10;56984.78;5053638;28;20032;-81
2023/05/27 09:47:53;;;;;;;12.75;4.15;;;21.80;89.90;;;-144.05;31.69;56944.41;5053355;28;20060;-81
2023/05/27 09:50:21;;;;;;;13.95;4.82;;;21.90;90.30;;;-144.05;32.10;56959.28;5053370;28;20084;-80
2023/05/27 09:55:17;;;;;;;14.40;4.63;;;22.00;84.00;;;-144.05;30.63;56950.78;5072588;28;20052;-80
2023/05/27 09:57:45;;;;;;;14.65;4.55;;;22.30;85.30;;;-144.05;30.71;56963.53;5073888;28;20027;-81
2023/05/27 10:00:14;;;;;;;13.60;4.35;;;22.50;86.60;;;-144.05;29.53;56963.53;5072641;28;20035;-80
2023/05/27 10:02:45;;;;;;;17.67;4.88;;;22.30;79.60;;;-144.05;30.24;56967.78;5072381;28;20513;-80
2023/05/27 10:05:19;;;;;;;14.77;4.78;;;22.40;81.60;;;-144.05;30.72;56969.91;5072508;28;20028;-80